Date,TemperatureHighF,TemperatureAvgF,TemperatureLowF,DewpointHighF,DewpointAvgF,DewpointLowF,HumidityHigh,HumidityAvg,HumidityLow,PressureMaxIn,PressureMinIn,WindSpeedMaxMPH,WindSpeedAvgMPH,GustSpeedMaxMPH,PrecipitationSumIn
2013-1-1,39.3,37.0,33.7,36.8,35.0,32.2,96,92,86,30.54,30.39,6,1,7,0.00
2013-1-2,42.2,36.2,32.4,35.9,32.9,29.9,94,88,75,30.39,30.24,10,1,10,0.00
2013-1-3,37.5,35.3,32.1,35.3,33.8,31.0,98,94,91,30.24,30.10,13,2,13,0.13
2013-1-4,41.7,39.7,35.8,41.2,38.9,34.5,98,97,95,30.31,30.15,10,2,10,0.03
2013-1-5,43.3,42.0,39.3,41.6,40.4,35.5,98,94,77,30.19,30.05,17,4,19,0.05
2013-1-6,43.2,41.5,39.1,40.7,38.4,35.0,97,89,76,30.10,29.91,23,4,23,0.43
2013-1-7,43.3,40.9,38.7,42.4,39.3,35.8,97,94,82,30.11,29.77,25,5,26,0.43
2013-1-8,41.6,38.4,33.0,40.9,37.2,32.0,98,96,88,30.14,29.56,21,3,24,2.24
2013-1-9,45.4,42.4,37.4,41.6,36.2,30.9,97,79,64,29.93,29.60,17,3,18,0.00
2013-1-10,40.7,38.6,35.2,35.8,33.1,30.1,92,81,70,30.17,29.93,30,8,32,0.02
2013-1-11,37.3,33.2,29.0,30.8,28.2,26.4,91,82,68,30.34,30.17,12,2,12,0.00
2013-1-12,36.0,32.2,28.7,31.2,28.5,25.8,90,86,79,30.43,30.34,7,1,7,0.00
2013-1-13,33.1,32.8,32.5,29.4,29.3,29.1,87,87,86,30.42,30.42,3,3,7,0.00
2013-1-14,35.2,33.4,32.5,34.2,30.6,29.1,96,89,86,30.60,30.42,6,2,7,0.02
2013-1-15,40.2,37.4,35.2,38.0,35.5,34.2,96,92,87,30.73,30.59,6,1,6,0.00
2013-1-16,38.8,38.2,37.2,35.5,35.0,33.6,90,88,86,30.70,30.64,5,1,5,0.00
2013-1-17,38.7,38.6,38.4,35.5,35.4,35.2,88,88,88,30.65,30.64,2,2,5,0.00
2013-1-18,40.6,38.3,36.0,37.6,35.7,33.4,94,91,86,30.36,30.28,9,2,9,0.00
2013-1-19,40.7,37.6,35.7,37.8,35.2,33.4,94,91,88,30.41,30.36,13,3,13,0.00
2013-1-20,37.4,34.9,31.8,36.0,33.9,31.2,98,96,94,30.43,30.31,13,3,13,0.00
2013-1-21,34.3,32.7,31.0,34.0,32.4,30.5,99,99,98,30.31,30.15,9,2,9,0.00
2013-1-22,38.1,34.2,30.2,36.5,33.1,30.0,99,96,87,30.16,29.93,7,1,8,0.00
2013-1-23,40.9,39.2,37.5,39.1,37.6,35.1,97,94,88,30.09,29.81,9,1,9,0.33
2013-1-24,41.6,39.0,35.9,39.9,37.9,34.9,98,95,92,30.18,29.98,22,4,22,0.44
2013-1-25,46.3,42.5,39.8,43.7,41.2,38.8,97,95,90,30.04,29.88,16,3,16,0.01
2013-1-26,42.8,41.3,39.9,41.6,39.9,37.7,97,95,89,30.00,29.84,14,3,14,0.25
2013-1-27,42.7,39.8,36.3,40.3,37.6,35.5,97,92,89,30.32,29.93,12,2,13,0.01
2013-1-28,41.6,40.4,39.4,39.1,36.9,35.2,92,87,82,30.05,29.97,14,2,14,0.00
2013-1-29,46.2,42.3,38.8,41.1,39.3,36.3,97,89,77,30.30,30.05,11,2,12,0.10
2013-1-30,44.1,42.1,40.7,42.8,41.3,40.0,98,97,94,30.37,30.30,5,1,5,0.00
2013-1-31,46.2,43.5,41.0,45.1,42.5,40.2,98,96,95,30.37,30.26,14,2,15,0.02
2013-2-1,44.7,43.1,40.3,43.1,41.4,39.0,97,94,91,30.44,30.34,9,1,9,0.00
2013-2-2,42.6,41.4,40.3,40.8,39.7,38.4,97,94,92,30.44,30.25,10,2,10,0.00
2013-2-3,42.9,41.6,40.5,41.8,40.5,39.0,97,96,93,30.29,30.14,10,1,10,0.03
2013-2-4,47.9,43.7,40.9,44.9,42.0,40.1,97,94,87,30.15,29.81,18,3,18,0.01
2013-2-5,48.2,44.1,40.9,44.6,41.8,39.0,95,92,84,29.81,29.70,20,4,20,0.28
2013-2-6,45.7,42.6,40.3,42.6,40.1,37.7,96,91,83,29.95,29.69,27,5,27,0.39
2013-2-7,47.2,42.7,38.2,41.8,37.9,34.0,94,84,70,30.21,29.68,21,4,21,0.21
2013-2-8,42.2,40.4,36.4,39.7,37.8,34.6,96,90,84,30.31,30.21,10,2,10,0.00
2013-2-9,42.2,39.9,36.5,40.7,38.7,35.2,97,95,93,30.36,30.27,6,1,6,0.00
2013-2-10,42.4,41.3,39.8,41.1,39.9,38.8,97,95,88,30.39,30.31,8,0,8,0.02
2013-2-11,44.2,42.4,39.5,42.0,40.4,37.6,95,93,90,30.33,30.30,10,2,10,0.00
2013-2-12,50.3,45.0,42.2,45.1,42.3,38.6,96,90,73,30.35,30.18,15,3,16,0.00
2013-2-13,46.6,43.5,38.5,43.1,38.8,33.1,92,83,70,30.46,30.23,9,2,9,0.00
2013-2-14,43.4,42.3,40.4,42.9,41.1,38.7,98,96,87,30.59,30.46,14,2,14,0.29
2013-2-15,44.9,43.1,42.0,43.9,42.2,40.5,98,97,94,30.59,30.18,7,1,7,0.03
2013-2-16,49.7,43.8,40.0,44.7,41.0,37.9,97,90,71,30.18,30.06,24,3,24,0.01
2013-2-17,44.4,41.3,38.6,38.6,35.9,33.0,91,81,74,30.23,30.10,15,4,16,0.00
2013-2-18,42.7,40.4,38.6,39.5,38.0,36.2,94,91,86,30.10,29.76,22,4,22,0.17
2013-2-19,44.3,40.8,38.3,40.7,37.5,34.8,95,88,72,29.99,29.79,12,5,20,0.00
2013-2-20,43.3,39.6,36.2,40.3,37.4,33.4,95,92,75,30.02,29.97,12,3,15,0.02
2013-2-21,50.2,43.1,39.3,42.2,38.9,36.7,94,85,66,29.99,29.91,14,2,14,0.02
2013-2-22,50.6,43.4,40.8,44.3,36.6,30.2,94,78,53,29.95,29.54,34,6,34,0.23
2013-2-23,46.1,42.7,37.7,39.6,35.2,30.5,86,75,63,30.30,29.78,18,4,18,0.00
2013-2-24,44.7,42.4,40.3,41.7,38.9,34.4,96,87,73,30.32,29.78,33,7,33,0.30
2013-2-25,47.7,43.8,40.6,41.7,37.1,31.2,96,78,56,30.25,29.67,31,6,31,0.05
2013-2-26,43.4,40.1,37.2,39.4,35.8,30.7,96,85,69,30.28,30.12,24,4,24,0.47
2013-2-27,44.7,40.4,35.2,41.0,36.7,31.4,96,86,74,30.29,30.14,12,3,12,0.01
2013-2-28,44.7,41.1,39.0,43.9,39.5,36.9,97,94,91,30.28,30.17,20,4,21,0.41
2013-3-1,52.4,48.5,44.8,50.6,47.4,44.0,98,96,92,30.22,30.16,11,2,11,0.49
2013-3-2,47.4,44.4,39.8,46.6,42.8,35.5,98,94,83,30.21,30.04,25,4,25,0.12
2013-3-3,45.8,41.8,38.3,39.4,35.6,32.3,87,79,67,30.32,30.17,27,9,27,0.00
2013-3-4,44.3,40.4,36.2,39.5,35.7,32.1,90,83,72,30.33,30.00,9,2,10,0.00
2013-3-5,45.6,40.5,37.3,39.4,36.0,32.5,94,84,64,30.00,29.80,17,2,17,0.17
2013-3-6,48.0,42.7,38.5,41.6,38.1,35.0,95,84,66,29.85,29.66,19,4,19,0.02
2013-3-7,44.6,42.5,38.7,42.3,40.7,37.4,96,93,91,30.13,29.85,15,3,15,0.00
2013-3-8,50.6,42.6,37.5,43.9,39.2,34.5,98,88,74,30.25,30.11,6,1,7,0.00
2013-3-9,48.1,41.7,35.8,43.8,39.4,34.0,97,92,84,30.48,30.25,11,2,11,0.00
2013-3-10,47.4,43.7,39.0,43.7,41.0,37.2,95,90,81,30.48,30.40,13,1,13,0.01
2013-3-11,47.2,42.4,37.8,42.3,39.6,36.6,97,90,81,30.44,30.12,12,2,12,0.40
2013-3-12,53.6,47.0,41.1,48.3,44.7,39.8,97,92,78,30.12,29.92,19,5,19,0.22
2013-3-13,54.2,49.7,48.0,49.3,47.7,46.4,97,93,83,30.10,29.97,18,5,18,0.12
2013-3-14,51.1,48.6,46.9,48.5,47.0,45.3,97,94,86,30.08,29.97,17,4,18,0.06
2013-3-15,51.2,47.4,43.4,49.0,45.8,41.9,96,94,88,30.17,30.08,17,3,18,0.02
2013-3-16,49.7,43.7,37.2,43.6,38.7,31.5,95,84,52,30.09,29.81,33,4,33,0.03
2013-3-17,46.1,41.9,38.3,37.9,32.9,29.5,80,71,56,30.13,29.92,14,4,14,0.03
2013-3-18,47.9,42.2,37.8,37.6,34.9,31.7,87,76,60,30.23,30.01,19,4,19,0.02
2013-3-19,45.3,41.0,36.4,41.2,35.6,31.6,94,82,62,30.23,29.52,28,4,28,0.69
2013-3-20,54.6,44.7,35.3,47.8,40.8,32.9,97,87,55,29.92,29.23,38,7,40,0.83
2013-3-21,45.2,38.8,34.6,36.0,30.8,26.5,92,73,56,30.20,29.92,18,3,18,0.02
2013-3-22,43.7,39.1,34.9,34.9,31.6,28.7,82,74,64,30.37,30.20,20,6,21,0.00
2013-3-23,45.7,40.9,35.2,38.3,34.1,29.6,90,77,61,30.39,30.31,16,2,17,0.00
2013-3-24,47.1,42.5,38.3,37.7,35.2,32.7,83,76,61,30.31,30.16,10,2,10,0.00
2013-3-25,49.4,44.8,40.6,42.2,38.4,35.1,88,78,65,30.16,29.98,10,2,10,0.00
2013-3-26,52.8,47.1,42.7,45.6,40.7,35.3,84,79,57,30.04,29.99,5,1,5,0.00
2013-3-27,57.4,49.8,45.2,46.6,42.7,38.5,89,77,59,30.01,29.95,9,2,9,0.00
2013-3-28,54.2,49.4,45.7,48.4,45.6,43.2,93,87,76,30.14,30.01,6,1,6,0.00
2013-3-29,54.1,48.1,43.6,49.1,45.1,41.8,96,89,75,30.28,30.14,9,1,9,0.00
2013-3-30,57.6,50.5,44.2,47.5,44.1,39.9,93,79,53,30.31,30.12,15,4,16,0.00
2013-3-31,62.4,52.9,47.9,45.5,42.8,39.3,86,69,49,30.12,29.92,16,3,16,0.00
2013-4-1,58.6,51.6,45.3,50.1,45.9,40.4,92,81,72,30.09,29.95,12,2,12,0.00
2013-4-2,49.4,49.0,46.5,47.0,46.3,44.6,95,90,89,30.15,30.09,1,0,3,0.00
2013-4-3,53.9,49.7,45.3,49.1,46.1,43.1,94,87,76,30.20,30.00,3,1,7,0.00
2013-4-4,50.5,49.0,46.9,49.3,46.5,43.5,97,91,81,30.00,29.56,11,1,11,0.38
2013-4-5,57.7,52.0,48.2,49.9,47.3,43.2,96,84,69,29.77,29.58,18,3,18,0.02
2013-4-6,53.8,47.7,42.3,46.9,42.6,34.0,95,83,53,29.85,29.58,21,3,21,0.30
2013-4-7,51.5,46.5,42.2,44.8,42.0,39.5,93,84,70,29.85,29.61,26,6,26,0.00
2013-4-8,55.1,49.6,46.8,46.7,43.4,40.7,87,79,66,30.22,29.86,17,4,18,0.00
2013-4-9,47.7,46.2,45.0,44.9,43.5,41.7,95,90,84,30.33,30.11,21,3,21,0.05
2013-4-10,56.2,49.3,46.2,47.5,44.3,38.9,97,84,62,30.19,29.81,29,7,30,0.26
2013-4-11,53.0,46.6,40.7,40.4,38.3,34.1,87,73,57,30.29,30.16,22,5,22,0.00
2013-4-12,45.7,42.2,38.1,40.5,38.3,33.8,93,86,73,30.16,29.61,38,5,40,0.09
2013-4-13,47.7,43.1,34.5,40.8,36.1,30.3,94,77,66,29.97,29.71,16,4,17,0.02
2013-4-14,50.8,45.1,41.1,41.8,37.6,32.7,89,75,61,30.02,29.92,11,2,11,0.07
2013-4-15,56.7,48.1,41.1,44.2,39.6,33.1,83,73,50,30.19,29.92,17,4,17,0.00
2013-4-16,61.9,49.8,44.9,44.5,37.7,26.5,81,65,27,30.37,30.19,13,3,13,0.00
2013-4-17,53.4,48.5,44.5,45.9,41.2,31.6,89,76,59,30.41,30.37,14,2,14,0.02
2013-4-18,49.3,46.3,43.9,46.0,44.0,41.6,96,92,83,30.41,30.13,18,4,19,0.23
2013-4-19,55.7,49.0,46.6,49.9,47.1,45.5,98,93,75,30.14,30.06,17,3,17,0.15
2013-4-20,52.1,49.6,47.4,47.6,44.6,40.7,95,83,72,30.23,30.14,18,5,18,0.00
2013-4-21,55.1,48.1,42.4,43.3,40.8,37.2,86,76,55,30.41,30.21,20,4,21,0.00
2013-4-22,56.8,48.7,41.5,43.3,38.3,27.9,88,68,34,30.58,30.41,12,3,12,0.00
2013-4-23,58.9,51.5,45.5,46.6,36.1,26.6,68,56,40,30.43,30.28,19,4,19,0.00
2013-4-24,60.2,54.6,46.9,47.4,40.9,32.6,80,61,38,30.34,30.06,13,3,13,0.00
2013-4-25,58.5,54.4,50.6,50.8,45.6,36.9,85,73,47,30.12,30.04,17,4,18,0.00
2013-4-26,58.9,52.4,46.0,49.8,47.1,43.4,94,82,68,30.22,30.12,15,3,15,0.00
2013-4-27,59.7,54.1,49.4,49.9,43.6,33.8,86,68,55,30.15,30.05,16,3,16,0.00
2013-4-28,54.6,49.1,46.0,42.3,36.9,30.6,77,63,54,30.19,29.88,16,4,17,0.00
2013-4-29,50.4,45.8,40.6,41.0,38.2,35.0,93,75,60,30.15,29.89,28,10,30,0.13
2013-4-30,55.2,46.6,41.9,37.9,33.4,23.2,79,61,30,30.44,30.15,28,6,28,0.00
2013-5-1,54.1,49.4,44.6,45.7,38.9,28.6,84,67,51,30.61,30.44,13,2,13,0.00
2013-5-2,56.2,51.0,42.6,47.6,43.1,36.6,85,75,64,30.58,30.41,23,4,24,0.00
2013-5-3,65.4,56.3,51.3,51.2,47.1,41.3,84,72,42,30.46,30.25,23,7,23,0.00
2013-5-4,68.9,58.2,53.0,51.8,47.7,42.8,85,69,40,30.31,30.04,14,5,14,0.00
2013-5-5,77.8,64.3,56.4,50.8,47.7,41.8,76,57,28,30.04,29.79,13,3,13,0.00
2013-5-6,77.1,66.1,57.1,54.6,49.2,44.5,73,56,33,29.87,29.74,17,2,20,0.00
2013-5-7,68.6,62.3,55.6,56.8,52.2,46.1,91,70,50,29.95,29.79,15,3,16,0.00
2013-5-8,65.3,58.2,52.4,55.3,52.6,49.3,90,82,68,30.12,29.95,16,2,16,0.00
2013-5-9,65.7,57.8,51.1,55.8,52.4,49.1,94,83,69,30.22,30.10,10,2,10,0.00
2013-5-10,57.8,51.1,48.7,53.6,47.3,45.0,87,87,86,30.15,30.02,0,0,1,0.00
2013-5-16,62.5,55.0,50.4,55.2,51.3,48.7,95,87,76,30.02,29.89,4,2,9,0.05
2013-5-17,58.4,55.1,51.4,56.1,52.4,49.2,94,91,87,30.01,29.91,5,2,15,1.00
2013-5-18,62.0,54.8,49.0,52.9,50.0,46.7,92,84,69,30.26,30.01,3,2,10,0.19
2013-5-19,61.6,55.6,52.0,51.4,48.3,44.4,91,77,64,30.40,30.26,12,5,22,0.00
2013-5-20,59.8,54.0,49.1,52.5,49.5,46.2,95,85,72,30.35,29.95,8,2,19,0.49
2013-5-21,52.5,49.3,45.8,47.8,45.6,44.2,94,87,75,29.95,29.79,6,3,14,0.29
2013-5-22,58.2,53.1,47.7,49.6,47.0,44.4,93,80,66,29.89,29.82,10,2,11,0.01
2013-5-23,61.9,53.3,47.1,49.7,46.5,41.2,94,79,53,30.00,29.88,15,3,15,0.25
2013-5-24,62.9,54.1,45.1,53.1,47.0,41.7,90,77,63,30.01,29.98,12,2,12,0.00
2013-5-25,62.4,54.1,47.6,51.9,48.3,44.3,91,81,60,30.02,29.99,17,3,18,0.02
2013-5-26,62.7,56.1,51.6,53.4,50.3,47.8,89,81,66,30.00,29.94,16,3,17,0.00
2013-5-27,55.8,54.0,52.4,53.1,51.9,50.4,96,93,82,29.93,29.69,15,4,18,0.41
2013-5-28,56.6,53.5,52.1,52.7,51.4,49.6,97,93,81,29.84,29.72,18,4,18,0.05
2013-5-29,53.4,51.5,48.9,51.8,49.8,47.8,97,94,92,29.91,29.71,10,2,10,0.34
2013-5-30,57.1,52.7,48.1,52.3,48.3,42.7,97,85,69,30.22,29.91,17,3,17,0.08
2013-5-31,60.1,54.3,48.2,52.1,49.7,45.7,94,85,70,30.35,30.22,11,2,11,0.00
2013-6-1,59.4,54.9,51.6,54.0,50.8,48.5,94,87,71,30.25,30.12,12,2,12,0.08
2013-6-2,65.8,57.6,52.7,55.3,50.7,47.5,89,78,59,30.12,30.02,22,7,22,0.00
2013-6-3,66.0,58.3,53.0,55.8,51.2,47.6,85,77,63,30.13,30.06,15,4,16,0.00
2013-6-4,75.8,61.0,53.0,60.4,53.5,47.2,87,77,49,30.16,30.02,4,1,7,0.00
2013-6-5,67.6,62.9,60.0,58.2,54.6,44.6,90,75,48,30.10,30.01,19,5,20,0.00
2013-6-6,75.4,67.0,57.7,59.7,55.0,47.0,89,67,50,30.07,29.98,10,2,11,0.00
2013-6-7,67.7,62.5,57.3,57.4,55.2,51.0,88,77,66,30.11,29.97,19,4,19,0.00
2013-6-8,63.2,58.5,55.0,53.8,51.4,48.8,85,78,67,30.17,30.10,8,2,8,0.00
2013-6-9,64.5,58.3,52.9,52.5,49.9,45.2,87,74,56,30.10,30.02,16,3,16,0.00
2013-6-10,67.0,59.2,53.2,54.6,49.2,42.5,82,70,46,30.03,29.84,16,4,17,0.00
2013-6-11,62.8,58.6,52.6,54.2,48.8,44.1,88,70,54,30.06,29.86,17,2,17,0.12
2013-6-12,60.4,55.3,50.6,54.0,50.1,45.6,88,83,73,30.14,30.06,12,2,12,0.03
2013-6-13,67.7,59.3,51.7,55.1,51.1,46.7,88,75,49,30.17,30.14,10,2,11,0.00
2013-6-14,63.4,59.5,55.1,55.2,52.2,50.0,90,77,67,30.19,30.09,19,3,19,0.00
2013-6-15,66.3,59.9,50.3,58.4,53.9,47.8,92,81,65,30.08,29.93,10,2,11,0.00
2013-6-16,69.3,63.5,56.2,61.3,56.6,51.7,87,79,60,30.04,29.96,11,2,11,0.00
2013-6-17,61.9,60.1,59.6,56.2,55.7,54.6,87,85,78,30.04,30.02,4,0,14,0.00
2013-6-18,60.1,60.0,59.8,56.2,55.8,55.3,87,86,85,30.02,30.02,0,0,9,0.00
2013-6-19,60.1,60.0,59.8,56.2,55.8,55.3,87,86,85,30.02,30.02,0,0,9,0.00
2013-6-20,60.1,58.6,55.5,56.2,55.3,54.0,96,89,85,30.07,29.94,3,0,9,0.12
2013-6-21,64.7,59.4,54.4,57.8,55.5,53.3,96,87,72,30.16,30.07,11,2,11,0.11
2013-6-22,67.9,62.0,58.7,58.0,56.3,53.9,89,82,66,30.12,29.89,11,2,11,0.00
2013-6-23,63.1,60.5,55.9,60.4,57.3,52.0,94,89,81,29.89,29.61,7,1,8,0.13
2013-6-24,65.0,60.7,58.0,60.8,58.0,55.3,97,91,72,29.67,29.53,12,2,12,0.56
2013-6-25,65.8,59.5,57.4,59.8,56.8,55.4,95,91,76,29.79,29.65,18,4,19,0.33
2013-6-26,67.6,60.8,55.7,60.5,56.9,54.3,96,87,76,30.07,29.78,18,4,18,0.26
2013-6-27,65.2,61.5,58.1,61.9,58.8,54.3,96,91,81,30.21,30.04,22,3,22,0.29
2013-6-28,70.3,61.9,58.4,63.4,59.8,57.1,98,93,79,30.22,30.07,10,1,10,0.00
2013-6-29,75.3,66.9,60.7,67.3,62.9,59.0,95,87,69,30.10,29.99,9,1,10,0.00
2013-6-30,79.6,71.5,64.8,68.8,64.5,61.5,92,79,63,30.02,29.85,11,2,11,0.00
2013-7-1,81.3,71.9,67.1,69.3,64.6,61.3,89,78,55,29.99,29.88,9,2,9,0.00
2013-7-2,83.4,71.1,66.0,67.8,62.0,57.0,89,74,43,30.08,29.98,17,3,19,0.00
2013-7-3,73.5,66.2,61.8,62.8,55.9,50.0,79,70,54,30.15,30.01,16,4,17,0.00
2013-7-4,69.5,64.7,60.1,57.5,54.2,50.8,83,69,55,30.09,30.01,16,5,18,0.00
2013-7-5,69.7,64.0,59.1,60.3,55.0,49.8,83,73,55,30.04,29.92,20,7,21,0.00
2013-7-6,73.7,65.0,58.2,61.6,55.8,52.0,85,73,47,30.02,29.85,20,6,20,0.00
2013-7-7,71.5,64.6,59.1,60.7,57.3,53.8,86,78,58,29.95,29.88,21,5,21,0.00
2013-7-8,73.7,64.9,59.6,60.7,57.6,54.1,88,77,60,30.08,29.94,15,3,15,0.00
2013-7-9,72.8,67.1,61.3,65.8,59.5,55.1,87,77,66,30.12,29.97,11,2,11,0.00
2013-7-10,71.4,64.6,60.2,60.5,56.6,45.2,85,76,54,30.03,29.88,16,4,17,0.00
2013-7-11,68.8,62.1,56.4,56.4,49.7,43.4,78,64,42,30.05,29.91,14,3,14,0.00
2013-7-12,70.0,62.3,57.3,55.5,51.6,49.0,79,69,50,30.07,30.01,19,4,20,0.00
2013-7-13,71.8,63.4,56.8,59.6,53.5,49.4,79,70,53,30.21,30.07,13,2,13,0.00
2013-7-14,69.0,64.7,60.6,58.2,54.0,48.5,77,69,51,30.13,30.02,20,5,20,0.00
2013-7-15,75.5,66.7,60.8,58.7,53.1,39.2,82,64,28,30.11,29.94,21,6,22,0.00
2013-7-16,77.2,69.9,64.3,58.9,53.8,40.8,75,58,30,29.96,29.83,13,3,15,0.00
2013-7-17,74.7,69.9,63.5,62.7,57.8,48.8,86,66,48,30.16,29.85,18,3,18,0.00
2013-7-18,76.9,66.2,58.4,63.4,59.9,55.7,92,81,62,30.23,30.09,4,1,5,0.00
2013-7-19,74.3,67.4,62.7,65.1,61.1,58.6,88,81,68,30.15,30.01,11,2,12,0.00
2013-7-20,70.2,66.4,63.2,62.2,59.9,57.6,87,80,69,30.05,29.93,14,2,14,0.00
2013-7-21,70.2,65.8,60.6,62.3,59.1,55.6,88,79,64,29.97,29.89,13,3,16,0.00
2013-7-22,73.8,66.7,62.7,62.5,58.0,52.5,80,74,62,30.04,29.92,13,3,14,0.00
2013-7-23,78.3,70.6,63.8,64.8,55.9,46.2,76,60,42,30.08,29.96,12,2,12,0.00
2013-7-24,79.3,70.5,65.9,61.9,57.2,51.7,79,64,44,30.05,29.98,13,3,14,0.00
2013-7-25,77.7,68.9,62.5,62.5,58.6,52.2,84,70,50,30.10,30.00,14,4,16,0.00
2013-7-26,73.0,66.6,62.1,60.7,56.2,51.2,80,70,51,30.15,30.07,19,7,20,0.00
2013-7-27,72.0,65.5,60.0,59.3,54.8,49.7,79,69,47,30.14,29.98,21,7,21,0.00
2013-7-28,74.4,65.4,59.3,61.0,56.7,51.8,81,74,50,30.01,29.89,17,4,17,0.00
2013-7-29,78.7,66.7,58.6,62.7,58.3,52.9,87,75,45,30.00,29.91,6,1,6,0.00
2013-7-30,75.0,66.9,60.7,64.8,59.8,56.2,91,79,57,30.11,29.96,11,2,11,0.00
2013-7-31,78.9,66.9,60.4,63.1,59.8,56.8,91,79,51,30.10,29.95,14,3,14,0.00
2013-8-1,72.2,66.4,61.9,62.1,59.4,56.5,91,79,67,30.01,29.94,18,3,19,0.00
2013-8-2,63.9,60.8,58.9,59.0,57.5,56.4,92,89,83,30.13,29.99,15,2,15,0.02
2013-8-3,71.4,63.1,59.5,60.3,58.0,56.9,92,84,65,30.15,30.05,9,1,9,0.00
2013-8-4,73.5,65.4,60.5,64.0,59.4,56.3,90,82,64,30.08,29.94,12,2,12,0.00
2013-8-5,73.0,66.9,62.8,65.3,58.5,50.7,83,75,58,30.02,29.91,11,2,11,0.00
2013-8-6,75.0,68.0,59.7,64.2,59.1,51.2,80,73,64,30.00,29.91,6,1,6,0.00
2013-8-7,77.8,69.9,62.3,64.5,59.1,53.3,80,69,57,30.00,29.91,8,2,8,0.00
2013-8-8,76.7,68.7,62.3,65.1,61.5,50.0,91,78,43,30.01,29.91,12,1,12,0.00
2013-8-9,79.8,72.2,67.8,65.3,59.2,49.1,84,65,42,29.94,29.79,13,3,13,0.00
2013-8-10,74.5,69.2,63.5,65.4,62.0,57.5,90,78,64,29.97,29.84,12,2,12,0.00
2013-8-11,68.2,64.2,61.2,61.9,59.6,57.6,93,85,76,30.05,29.95,4,2,14,0.41
2013-8-12,72.8,65.9,61.1,62.9,60.7,58.4,92,84,68,30.05,30.00,16,2,17,0.00
2013-8-13,72.7,66.1,61.4,64.5,60.6,56.8,91,83,70,30.09,29.93,11,2,11,0.00
2013-8-14,70.7,65.6,60.1,62.5,58.8,56.0,90,79,66,29.94,29.88,15,2,15,0.03
2013-8-15,71.8,65.2,59.6,63.2,60.5,57.6,95,85,71,29.97,29.90,12,2,14,0.02
2013-8-16,71.3,64.5,61.0,64.1,61.1,58.5,94,89,73,30.00,29.95,15,2,15,0.12
2013-8-17,71.5,66.0,60.8,63.7,60.8,54.9,96,84,71,30.04,29.97,17,3,17,0.00
2013-8-18,68.8,62.9,57.3,62.0,57.2,52.8,90,82,74,30.10,30.03,16,2,16,0.00
2013-8-19,72.6,64.4,59.8,58.9,56.4,53.0,87,76,57,30.10,30.03,13,2,13,0.00
2013-8-20,70.6,64.5,60.2,56.9,52.6,43.7,85,67,40,30.18,30.08,16,5,16,0.00
2013-8-21,66.7,66.3,65.8,62.4,50.1,46.5,88,56,50,30.11,30.01,10,4,11,0.00
2013-8-22,74.6,68.7,64.8,61.1,55.9,47.9,84,64,42,29.95,29.77,6,2,12,0.00
2013-8-23,68.8,64.6,60.8,61.4,57.9,54.4,89,79,69,29.85,29.77,9,3,23,0.00
2013-8-24,66.8,61.0,57.1,60.1,56.6,53.0,93,86,73,29.90,29.84,7,2,14,0.56
2013-8-25,66.6,60.0,53.3,60.3,55.5,51.2,93,85,76,29.95,29.84,4,2,9,0.00
2013-8-26,68.9,61.6,55.4,59.8,55.4,49.7,90,80,65,29.90,29.82,17,2,17,0.06
2013-8-27,67.9,62.2,58.6,60.0,57.6,54.9,93,85,74,29.92,29.83,17,3,17,0.20
2013-8-28,70.3,63.1,58.1,63.1,60.0,56.8,97,90,76,29.89,29.82,15,2,15,0.14
2013-8-29,65.5,63.6,61.7,64.3,62.5,60.2,97,96,94,29.91,29.83,23,4,23,0.47
2013-8-30,68.0,61.9,59.0,61.7,58.3,55.9,96,88,77,30.15,29.91,15,3,15,0.00
2013-8-31,68.4,61.6,55.2,61.4,57.4,54.0,97,87,66,30.12,29.84,7,2,7,0.00
2013-9-1,71.4,64.1,56.9,63.5,58.8,53.9,91,83,68,29.88,29.78,10,1,10,0.00
2013-9-2,65.8,63.1,61.1,60.9,59.6,58.4,92,88,81,29.86,29.83,3,1,4,0.00
2013-9-3,69.7,63.3,60.0,64.9,60.6,58.0,96,91,80,30.04,29.93,4,1,10,0.20
2013-9-4,69.6,63.6,59.6,61.6,59.4,55.5,97,87,61,30.08,30.01,7,3,16,0.00
2013-9-5,68.9,65.2,62.9,61.0,58.4,55.8,90,79,72,30.06,29.92,6,3,14,0.00
2013-9-6,72.8,65.4,59.6,63.4,59.5,56.3,90,81,68,30.04,29.91,13,3,15,0.00
2013-9-9,68.7,64.4,58.9,62.0,59.7,57.1,95,85,72,30.08,29.99,5,2,11,0.00
2013-9-10,73.9,65.8,60.6,60.3,57.0,53.1,85,74,58,30.03,29.92,8,3,17,0.00
2013-9-11,76.8,69.0,64.6,61.7,58.1,56.1,85,69,51,29.98,29.89,4,1,8,0.00
2013-9-12,79.3,69.2,63.3,64.3,59.3,56.5,80,71,53,29.98,29.86,2,1,6,0.00
2013-9-13,66.5,62.9,59.4,62.3,59.9,57.3,95,90,77,29.94,29.83,5,2,11,0.00
2013-9-14,62.7,59.6,57.8,60.2,58.4,56.9,98,96,91,29.89,29.76,2,1,8,0.00
2013-9-15,64.3,59.7,57.6,62.6,59.0,57.1,99,97,93,29.76,29.70,14,1,16,0.23
2013-9-16,62.2,59.5,54.1,59.6,57.5,51.4,98,93,77,29.91,29.73,12,2,12,0.38
2013-9-17,63.7,58.2,53.3,57.1,53.2,50.0,93,84,70,29.91,29.83,12,2,13,0.00
2013-9-18,65.8,59.8,56.0,56.2,52.9,49.9,87,78,69,30.05,29.90,11,2,11,0.00
2013-9-19,70.7,61.8,55.8,54.5,51.2,45.9,89,70,42,30.04,29.72,19,3,19,0.00
2013-9-20,62.4,58.4,56.3,57.0,53.1,48.2,96,83,64,29.73,29.58,15,2,15,0.33
2013-9-21,64.2,57.0,52.5,58.9,55.1,51.6,99,93,79,29.70,29.60,10,1,12,0.07
2013-9-22,61.1,56.6,52.8,58.9,52.4,48.5,97,86,68,29.64,29.42,22,4,24,0.63
2013-9-23,62.2,57.7,51.8,59.7,49.4,41.5,97,75,55,29.93,29.68,14,2,14,2.82
2013-9-24,55.4,51.7,48.6,51.9,47.8,41.8,93,87,65,29.93,29.86,11,2,11,0.11
2013-9-25,60.6,54.1,49.9,59.7,48.1,43.3,97,80,58,30.02,29.71,22,6,22,0.47
2013-9-26,62.4,54.8,50.9,51.2,47.6,41.9,88,77,64,30.13,30.02,14,2,15,0.00
2013-9-27,54.6,52.1,50.2,51.8,50.3,48.5,96,94,86,30.06,29.77,14,2,14,0.50
2013-9-28,55.9,52.8,50.7,54.2,50.7,47.9,97,92,83,29.77,29.18,25,5,26,0.82
2013-9-29,55.7,51.6,47.7,52.7,49.7,45.7,96,93,81,29.41,29.01,25,5,29,1.65
2013-9-30,58.6,51.2,47.1,52.1,46.1,41.1,92,83,67,29.83,29.17,14,3,18,0.16
2013-10-1,52.7,48.4,43.4,48.6,45.0,40.9,95,88,75,30.07,29.83,14,3,17,0.30
2013-10-2,51.4,48.8,47.0,48.0,46.6,44.6,96,92,85,30.22,30.04,17,3,17,0.19
2013-10-3,52.7,49.9,47.1,48.2,46.6,44.6,94,88,83,30.46,30.22,10,2,10,0.00
2013-10-4,53.3,49.9,45.5,49.8,47.4,44.4,97,91,84,30.48,30.35,11,2,13,0.01
2013-10-5,58.2,54.5,51.7,52.1,49.8,48.2,90,84,75,30.35,30.15,16,2,16,0.00
2013-10-6,66.3,57.4,48.6,53.4,50.0,46.7,96,78,58,30.15,29.75,20,3,20,0.00
2013-10-7,61.2,56.4,50.3,51.5,47.8,44.1,95,74,55,29.96,29.76,19,3,20,0.13
2013-10-8,56.1,52.3,49.6,48.8,44.9,42.2,94,76,63,30.12,29.95,28,7,28,0.00
2013-10-9,54.9,51.2,47.7,49.0,45.0,41.8,88,79,70,30.15,29.95,12,2,13,0.00
2013-10-10,54.2,50.8,47.8,48.6,45.9,41.2,96,84,67,30.08,29.94,14,3,15,0.16
2013-10-11,51.5,49.4,47.2,46.4,44.0,38.7,92,82,68,30.17,30.08,7,1,7,0.00
2013-10-12,53.5,50.2,46.5,49.4,46.0,42.8,93,86,69,30.23,30.10,17,4,17,0.00
2013-10-13,59.4,53.3,45.8,49.4,46.2,42.5,90,77,63,30.39,29.98,5,2,13,0.00
2013-10-14,54.9,49.8,44.5,49.4,46.0,42.0,92,87,73,30.46,30.39,10,2,10,0.00
2013-10-15,53.8,50.4,47.3,50.3,47.3,44.4,93,89,84,30.41,30.20,7,1,7,0.00
2013-10-16,53.8,51.3,47.5,50.0,48.2,45.5,94,89,80,30.24,30.18,15,3,15,0.00
2013-10-17,50.3,48.6,47.1,49.3,47.5,45.5,99,96,89,30.31,30.22,8,1,8,0.00
2013-10-18,49.1,46.4,43.7,48.7,46.0,43.1,99,99,98,30.28,30.18,8,0,8,0.02
2013-10-19,47.5,46.0,43.5,47.2,45.6,43.2,99,99,97,30.23,30.18,14,2,14,0.00
2013-10-20,48.1,46.3,44.9,47.3,45.8,44.6,99,98,96,30.25,30.17,9,1,9,0.00
2013-10-21,48.1,45.6,43.7,47.7,45.3,43.4,99,99,98,30.21,30.12,7,0,7,0.01
2013-10-22,50.4,45.9,42.5,50.2,45.7,42.4,100,100,99,30.16,30.05,9,0,9,0.01
2013-10-23,49.7,46.0,42.2,49.4,45.9,42.2,100,100,99,30.08,30.00,3,0,3,0.02
2013-10-24,48.8,46.4,44.3,48.5,46.3,44.3,100,100,99,30.11,30.03,4,0,4,0.02
2013-10-25,50.4,47.8,44.6,50.4,47.7,44.4,100,100,99,30.35,30.11,7,0,7,0.02
2013-10-26,51.7,49.7,48.3,49.4,47.7,45.0,99,93,85,30.38,30.17,18,3,18,0.00
2013-10-27,59.7,53.9,48.0,47.6,44.3,37.0,90,71,52,30.17,29.99,33,8,35,0.00
2013-10-28,56.6,52.5,43.5,40.7,32.0,22.8,64,46,28,30.08,29.95,19,5,21,0.00
2013-10-29,51.9,45.2,39.1,43.9,36.7,29.1,91,73,48,30.03,29.97,11,1,11,0.00
2013-10-30,50.4,47.1,41.9,47.0,43.9,39.4,95,89,81,30.10,30.02,17,3,17,0.02
2013-10-31,51.9,49.8,48.6,49.7,48.1,47.0,96,94,91,30.25,30.06,11,1,11,0.02
2013-11-1,52.9,50.5,49.2,50.5,49.1,47.5,97,95,91,30.25,29.80,13,2,13,0.44
2013-11-2,51.1,48.5,40.1,49.9,45.7,38.8,97,90,78,30.08,29.52,35,9,36,2.10
2013-11-3,48.6,46.1,42.8,41.9,38.0,34.1,81,73,67,30.12,29.87,21,6,21,0.00
2013-11-4,44.9,42.7,39.3,40.2,37.7,34.2,90,83,67,30.20,30.08,15,3,15,0.02
2013-11-5,44.1,42.1,39.9,41.2,39.8,38.0,94,91,88,30.24,30.06,10,1,10,0.06
2013-11-6,47.1,45.1,42.8,43.8,42.4,40.4,95,90,87,30.33,30.00,14,2,14,0.28
2013-11-7,51.4,46.9,40.5,48.3,45.0,38.9,97,93,87,30.20,29.61,12,2,16,0.91
2013-11-8,50.6,47.6,43.4,47.4,44.4,39.8,95,89,79,30.13,29.73,9,2,12,0.00
2013-11-9,47.9,45.5,44.1,45.8,43.6,40.6,96,93,86,30.15,29.86,12,1,13,0.15
2013-11-10,46.9,45.7,44.5,44.3,43.3,42.0,96,91,88,30.21,30.16,14,4,18,0.00
2013-11-11,52.5,47.9,44.5,44.3,42.1,40.4,93,81,67,30.20,29.98,12,2,12,0.00
2013-11-12,54.2,50.5,47.6,50.7,47.1,41.8,94,88,73,30.27,29.97,17,3,17,0.13
2013-11-13,54.7,50.7,46.4,48.7,45.9,43.2,93,84,72,30.39,30.27,13,2,13,0.00
2013-11-14,49.3,47.5,44.3,46.3,42.5,37.7,93,83,70,30.30,30.04,22,5,23,0.00
2013-11-15,45.8,44.5,42.7,44.1,40.7,37.5,95,87,75,30.04,29.30,33,4,38,0.05
2013-11-16,46.2,44.1,37.6,40.2,36.5,32.0,83,75,67,29.72,29.35,27,6,27,0.00
2013-11-17,51.9,44.6,37.5,42.2,37.7,32.3,86,77,64,29.83,29.71,17,3,17,0.00
2013-11-18,46.2,43.9,41.7,43.1,40.4,37.7,96,88,74,29.85,29.58,8,1,8,0.47
2013-11-19,43.2,40.6,36.1,40.7,30.6,20.3,96,69,41,30.09,29.59,42,13,42,0.12
2013-11-20,42.8,38.2,33.3,31.7,24.9,18.0,76,59,44,30.55,29.85,30,12,40,0.00
2013-11-21,41.6,35.6,31.3,35.2,31.1,25.9,91,84,75,30.70,30.55,6,2,6,0.00
2013-11-22,42.7,37.4,32.1,37.8,34.3,29.8,95,89,81,30.70,30.49,8,2,8,0.00
2013-11-23,43.4,39.8,36.2,39.9,37.3,34.1,94,91,86,30.49,30.24,8,2,8,0.00
2013-11-24,46.7,41.9,39.4,41.7,37.5,33.8,90,84,78,30.26,30.21,8,1,8,0.00
2013-11-25,49.1,42.6,37.6,42.8,38.6,35.2,93,86,72,30.32,30.26,9,1,9,0.00
2013-11-26,48.6,42.6,35.9,40.6,37.8,33.4,96,84,56,30.29,30.12,14,2,14,0.00
2013-11-27,46.6,44.2,41.3,44.2,41.2,36.7,95,89,73,30.13,30.00,7,1,8,0.00
2013-11-28,48.7,44.6,40.4,44.0,41.7,38.5,95,89,79,30.19,30.04,11,1,11,0.00
2013-11-29,47.8,45.8,43.2,45.7,44.1,41.3,97,94,91,30.27,30.18,11,1,11,0.16
2013-11-30,46.7,45.8,44.4,45.9,45.0,43.6,98,97,96,30.29,30.10,20,6,20,0.24
2013-12-1,54.9,46.6,39.8,45.9,42.0,33.3,97,85,52,30.22,29.68,26,6,27,0.04
2013-12-2,43.2,39.4,35.6,36.9,31.5,22.7,90,74,59,30.16,29.77,31,8,31,0.04
2013-12-3,40.1,36.0,31.4,30.6,24.3,21.6,75,62,55,30.37,30.16,18,5,18,0.00
2013-12-4,38.6,33.2,30.0,24.5,20.7,16.8,69,60,49,30.40,30.35,13,2,13,0.00
2013-12-5,32.4,30.6,27.5,28.7,23.3,17.4,90,75,54,30.34,30.24,10,2,10,0.00
2013-12-6,32.9,28.1,24.2,20.3,13.0,2.0,72,54,30,30.37,30.24,18,2,18,0.00
2013-12-7,33.2,26.3,23.1,14.8,10.2,3.0,66,51,33,30.43,30.36,13,2,13,0.00
2013-12-8,34.7,27.5,23.1,23.4,19.5,13.5,80,72,58,30.57,30.42,6,1,7,0.00
2013-12-9,46.5,31.3,25.9,45.7,27.7,20.5,97,86,78,30.57,30.11,11,1,11,0.00
2013-12-10,46.7,43.0,34.7,45.9,41.9,32.8,98,96,92,30.50,30.10,11,5,15,0.01
2013-12-11,40.1,37.7,36.4,36.2,34.7,33.9,93,89,80,30.45,30.16,5,2,12,0.00
2013-12-12,41.4,39.0,37.0,40.4,36.6,32.9,96,91,85,30.17,30.01,7,3,17,0.04
2013-12-13,43.3,42.0,40.7,42.8,41.3,39.9,98,97,96,30.41,30.12,3,1,10,0.00
2013-12-14,46.7,44.7,42.8,45.4,43.8,42.3,98,96,94,30.42,30.26,16,4,17,0.01
2013-12-15,47.9,45.4,41.6,46.8,43.9,39.8,96,94,91,30.41,30.25,15,3,15,0.00
2013-12-16,43.1,40.8,36.3,42.3,39.9,35.5,98,97,94,30.49,30.27,9,2,12,0.01
2013-12-17,44.9,42.9,41.3,42.8,41.4,39.8,96,94,92,30.27,30.05,16,3,17,0.00
2013-12-18,43.3,40.2,37.3,41.2,35.0,28.2,97,82,68,30.29,30.04,35,10,35,0.01
2013-12-19,38.4,36.1,33.1,32.2,28.0,23.0,93,73,60,30.38,30.18,18,2,18,0.01
2013-12-20,34.9,33.8,32.8,34.0,32.8,31.6,97,96,93,30.19,29.74,20,5,20,0.62
2013-12-21,35.3,35.2,35.2,34.3,34.2,34.2,96,96,96,29.86,29.83,2,1,5,0.00
2013-12-22,35.3,35.2,35.2,34.3,34.2,34.2,96,96,96,29.86,29.83,2,1,5,0.00
2013-12-23,49.6,42.3,35.2,44.7,39.6,34.2,98,90,74,30.49,29.83,14,4,25,0.01
2013-12-24,43.5,40.8,37.5,40.8,38.2,35.3,95,90,83,30.62,30.48,9,1,9,0.01
2013-12-25,41.5,39.7,35.6,39.1,37.4,34.0,96,91,83,30.57,30.39,16,2,17,0.00
2013-12-26,43.9,42.1,40.6,41.3,40.0,37.6,94,92,88,30.40,30.19,16,3,17,0.00
2013-12-27,48.3,44.5,42.0,44.8,41.2,39.0,95,88,81,30.35,30.00,19,5,19,0.03
2013-12-28,45.2,43.0,37.3,41.1,38.8,34.9,93,85,80,30.53,30.36,18,3,18,0.00
2013-12-29,43.1,41.1,38.2,41.6,39.5,35.9,96,94,90,30.49,30.33,8,1,10,0.05
2013-12-30,44.7,42.8,40.9,42.2,41.3,39.5,97,94,90,30.33,30.08,14,3,14,0.01
2013-12-31,45.2,44.1,42.8,44.1,43.0,41.7,97,96,95,30.39,30.15,9,1,9,0.01
2014-1-1,44.9,43.5,42.6,43.6,42.3,41.4,96,96,94,30.42,30.25,15,2,15,0.12
2014-1-2,45.3,43.8,41.6,44.3,42.0,36.4,98,93,81,30.25,29.83,32,5,32,0.17